Time;durP1;ratioP1;P1;durP2;ratioP2;P2;SDS_P1;SDS_P2;PMS_P1;PMS_P2;Temp;Humidity;BMP_temperature;BMP_pressure;BME280_temperature;BME280_humidity;BME280_pressure;Samples;Min_cycle;Max_cycle;Signal;HPM_P1;HPM_P2
2023/12/26 00:01:54;;;;;;;53.13;29.63;;;5.30;99.60;;;;;;5090648;28;20224;-61
2023/12/26 00:04:23;;;;;;;76.97;29.77;;;5.30;99.50;;;;;;5081508;28;20207;-61
2023/12/26 00:06:53;;;;;;;48.30;26.70;;;5.30;99.50;;;;;;5082760;28;20196;-61
2023/12/26 00:09:20;;;;;;;77.73;28.30;;;5.30;99.50;;;;;;5083862;28;20223;-61
2023/12/26 00:11:47;;;;;;;57.93;29.87;;;5.30;99.50;;;;;;5091178;28;20211;-61
2023/12/26 00:14:18;;;;;;;79.87;28.93;;;5.30;99.40;;;;;;5082646;28;20206;-61
2023/12/26 00:16:46;;;;;;;84.33;26.33;;;5.40;99.40;;;;;;5084799;28;20261;-62
2023/12/26 00:19:13;;;;;;;82.20;28.30;;;5.30;99.30;;;;;;5082592;28;20213;-62
2023/12/26 00:21:40;;;;;;;80.43;26.70;;;5.30;99.30;;;;;;5083980;28;20193;-62
2023/12/26 00:24:07;;;;;;;70.13;27.87;;;5.30;99.30;;;;;;5086190;28;20633;-62
2023/12/26 00:26:37;;;;;;;62.63;28.20;;;5.20;99.30;;;;;;5079954;28;20213;-61
2023/12/26 00:29:08;;;;;;;57.07;27.60;;;5.20;99.40;;;;;;5085736;28;20305;-61
2023/12/26 00:31:40;;;;;;;48.97;28.10;;;5.20;99.40;;;;;;5088276;28;20553;-61
2023/12/26 00:34:08;;;;;;;56.70;28.43;;;5.20;99.40;;;;;;5077719;28;20687;-61
2023/12/26 00:36:35;;;;;;;62.63;28.33;;;5.20;99.40;;;;;;5084886;28;20202;-62
2023/12/26 00:39:03;;;;;;;60.57;24.80;;;5.20;99.40;;;;;;5081233;28;20281;-62
2023/12/26 00:41:30;;;;;;;43.40;25.17;;;5.20;99.30;;;;;;5085981;28;20214;-62
2023/12/26 00:43:57;;;;;;;43.17;26.93;;;5.20;99.30;;;;;;5085404;28;20519;-61
2023/12/26 00:46:24;;;;;;;46.83;28.90;;;5.20;99.30;;;;;;5086064;28;20201;-62
2023/12/26 00:48:51;;;;;;;43.10;27.03;;;5.20;99.20;;;;;;5097415;28;20198;-61
2023/12/26 00:51:18;;;;;;;37.10;26.73;;;5.20;99.20;;;;;;5083700;28;20224;-61
2023/12/26 00:53:46;;;;;;;48.57;25.13;;;5.10;99.20;;;;;;5079194;28;20222;-62
2023/12/26 00:56:13;;;;;;;36.30;26.30;;;5.10;99.20;;;;;;5084951;28;20208;-62
2023/12/26 00:58:41;;;;;;;37.20;25.60;;;5.10;99.10;;;;;;5087586;28;20220;-61
2023/12/26 01:01:09;;;;;;;33.87;24.70;;;5.10;99.00;;;;;;5083797;28;20218;-61
2023/12/26 01:03:36;;;;;;;49.97;27.57;;;5.10;99.00;;;;;;5081495;28;20549;-61
2023/12/26 01:06:03;;;;;;;38.83;27.07;;;5.00;99.00;;;;;;5077778;28;21147;-62
2023/12/26 01:08:30;;;;;;;48.50;24.20;;;5.00;99.00;;;;;;5084005;28;20284;-61
2023/12/26 01:10:58;;;;;;;64.37;27.07;;;5.00;99.10;;;;;;5083522;28;20200;-62
2023/12/26 01:13:26;;;;;;;43.10;25.10;;;5.00;99.10;;;;;;5077468;28;20226;-62
2023/12/26 01:15:53;;;;;;;66.03;27.60;;;5.00;99.00;;;;;;5083282;28;20292;-62
2023/12/26 01:18:20;;;;;;;37.13;25.33;;;5.00;99.10;;;;;;5085505;28;20241;-62
2023/12/26 01:20:48;;;;;;;98.37;26.13;;;5.00;99.00;;;;;;5082692;28;20237;-62
2023/12/26 01:23:16;;;;;;;35.03;25.80;;;5.00;99.10;;;;;;5084836;28;20204;-62
2023/12/26 01:25:43;;;;;;;31.53;23.70;;;4.90;98.80;;;;;;5082180;28;20192;-62
2023/12/26 01:28:10;;;;;;;40.53;27.80;;;4.90;98.90;;;;;;5084638;28;20193;-62
2023/12/26 01:30:40;;;;;;;49.30;28.53;;;5.00;98.90;;;;;;5082289;28;20210;-62
2023/12/26 01:33:09;;;;;;;41.43;29.20;;;4.90;98.90;;;;;;5083664;28;20204;-61
2023/12/26 01:35:37;;;;;;;45.87;30.77;;;5.00;98.80;;;;;;5082191;28;20277;-61
2023/12/26 01:38:04;;;;;;;51.80;31.10;;;4.90;98.80;;;;;;5081957;28;20695;-62
2023/12/26 01:40:31;;;;;;;53.33;29.63;;;4.90;98.80;;;;;;5080456;28;20301;-62
2023/12/26 01:42:58;;;;;;;46.87;28.50;;;4.90;98.90;;;;;;5088704;28;20223;-62
2023/12/26 01:45:26;;;;;;;55.17;28.83;;;4.90;99.00;;;;;;5079076;28;20295;-62
2023/12/26 01:47:58;;;;;;;45.27;28.57;;;4.90;98.90;;;;;;5080186;28;20192;-62
2023/12/26 01:50:26;;;;;;;68.63;29.27;;;4.90;99.00;;;;;;5078477;28;20196;-62
2023/12/26 01:52:54;;;;;;;44.53;28.83;;;4.90;99.00;;;;;;5083771;28;20214;-62
2023/12/26 01:55:22;;;;;;;51.20;29.97;;;4.80;98.90;;;;;;5085808;28;20199;-62
2023/12/26 01:57:51;;;;;;;92.10;31.27;;;4.80;98.90;;;;;;5078713;28;20212;-62
2023/12/26 02:00:18;;;;;;;78.13;29.57;;;4.80;99.00;;;;;;5077577;28;20239;-62
2023/12/26 02:02:46;;;;;;;109.13;29.40;;;4.80;98.90;;;;;;5077453;28;20243;-61
2023/12/26 02:05:14;;;;;;;49.23;28.97;;;4.70;98.90;;;;;;5095046;28;20222;-62
2023/12/26 02:07:41;;;;;;;56.17;29.33;;;4.70;98.90;;;;;;5087594;28;20269;-62
2023/12/26 02:10:08;;;;;;;55.03;29.33;;;4.70;99.00;;;;;;5081217;28;20228;-62
2023/12/26 02:12:36;;;;;;;46.07;30.13;;;4.60;99.10;;;;;;5087790;28;20193;-61
2023/12/26 02:15:04;;;;;;;51.60;30.67;;;4.60;99.20;;;;;;5081582;28;20205;-61
2023/12/26 02:17:34;;;;;;;46.10;28.27;;;4.60;99.30;;;;;;5087959;28;20200;-61
2023/12/26 02:20:02;;;;;;;67.93;29.17;;;4.60;99.30;;;;;;5078748;28;20215;-62
2023/12/26 02:22:30;;;;;;;78.33;31.00;;;4.60;99.40;;;;;;5083137;28;20631;-62
2023/12/26 02:24:57;;;;;;;60.13;30.53;;;4.70;99.40;;;;;;5079477;28;20258;-62
2023/12/26 02:27:26;;;;;;;72.37;30.17;;;4.70;99.40;;;;;;5079010;28;20201;-62
2023/12/26 02:29:53;;;;;;;56.93;31.97;;;4.70;99.40;;;;;;5080557;28;20209;-63
2023/12/26 02:32:25;;;;;;;53.00;30.40;;;4.70;99.30;;;;;;5082096;28;20204;-62
2023/12/26 02:35:00;;;;;;;58.60;31.83;;;4.70;99.30;;;;;;5081668;28;20200;-62
2023/12/26 02:37:29;;;;;;;41.73;32.17;;;4.70;99.30;;;;;;5084995;28;20228;-62
2023/12/26 02:39:56;;;;;;;47.93;31.70;;;4.70;99.30;;;;;;5065245;28;20325;-62
2023/12/26 02:42:24;;;;;;;140.20;33.13;;;4.70;99.30;;;;;;5077980;28;20201;-61
2023/12/26 02:44:52;;;;;;;63.10;30.47;;;4.70;99.20;;;;;;5079760;28;20660;-61
2023/12/26 02:47:19;;;;;;;59.90;32.20;;;4.70;99.20;;;;;;5078808;28;20196;-62
2023/12/26 02:49:46;;;;;;;68.80;32.30;;;4.70;99.20;;;;;;5081168;28;20629;-61
2023/12/26 02:52:13;;;;;;;89.70;30.47;;;4.70;99.20;;;;;;5076798;28;20296;-62
2023/12/26 02:54:40;;;;;;;114.57;31.47;;;4.60;99.20;;;;;;5091392;28;20212;-61
2023/12/26 02:57:07;;;;;;;70.27;29.80;;;4.60;99.20;;;;;;5083139;28;20204;-62
2023/12/26 02:59:34;;;;;;;57.93;30.40;;;4.60;99.10;;;;;;5083088;28;20199;-61
2023/12/26 03:02:02;;;;;;;104.67;29.63;;;4.60;99.20;;;;;;5081786;28;20243;-62
2023/12/26 03:04:29;;;;;;;52.50;29.47;;;4.50;99.10;;;;;;5083280;28;20205;-61
2023/12/26 03:06:56;;;;;;;62.23;30.50;;;4.50;99.10;;;;;;5084513;28;20201;-62
2023/12/26 03:09:24;;;;;;;48.13;27.23;;;4.50;99.00;;;;;;5078315;28;20229;-62
2023/12/26 03:11:51;;;;;;;66.10;29.27;;;4.40;99.00;;;;;;5078301;28;20563;-63
2023/12/26 03:14:19;;;;;;;86.23;28.93;;;4.40;99.00;;;;;;5081712;28;20208;-62
2023/12/26 03:16:46;;;;;;;74.50;29.47;;;4.40;98.90;;;;;;5082382;28;20211;-62
2023/12/26 03:19:13;;;;;;;87.03;29.47;;;4.40;99.00;;;;;;5079977;28;20641;-62
2023/12/26 03:21:40;;;;;;;66.57;27.53;;;4.30;99.00;;;;;;5083983;28;20257;-62
2023/12/26 03:24:07;;;;;;;71.07;28.23;;;4.30;98.90;;;;;;5083521;28;20205;-62
2023/12/26 03:26:34;;;;;;;76.97;29.37;;;4.30;98.80;;;;;;5089659;28;20621;-62
2023/12/26 03:29:01;;;;;;;72.90;28.63;;;4.30;98.80;;;;;;5077859;28;20264;-62
2023/12/26 03:31:30;;;;;;;67.53;28.03;;;4.30;99.10;;;;;;5083115;28;20661;-62
2023/12/26 03:33:57;;;;;;;53.60;28.60;;;4.30;98.90;;;;;;5084124;28;20242;-62
2023/12/26 03:36:25;;;;;;;86.93;28.27;;;4.20;98.80;;;;;;5084702;28;20232;-61
2023/12/26 03:38:52;;;;;;;103.43;29.03;;;4.20;98.80;;;;;;5081699;28;20205;-61
2023/12/26 03:41:19;;;;;;;73.13;30.17;;;4.20;98.80;;;;;;5089379;28;20806;-61
2023/12/26 03:43:46;;;;;;;105.40;27.87;;;4.10;98.90;;;;;;5078097;28;20201;-61
2023/12/26 03:46:13;;;;;;;74.17;26.93;;;4.10;99.10;;;;;;5087528;28;20203;-62
2023/12/26 03:48:40;;;;;;;59.60;27.53;;;4.10;99.10;;;;;;5078595;28;20569;-62
2023/12/26 03:51:08;;;;;;;75.23;28.73;;;4.10;99.20;;;;;;5086517;28;20307;-62
2023/12/26 03:53:35;;;;;;;58.50;28.43;;;4.10;99.30;;;;;;5083565;28;20293;-62
2023/12/26 03:56:03;;;;;;;56.73;27.43;;;4.20;99.40;;;;;;5083137;28;20199;-62
2023/12/26 03:58:30;;;;;;;80.60;28.10;;;4.20;99.40;;;;;;5082175;28;20210;-61
2023/12/26 04:00:57;;;;;;;60.23;27.50;;;4.20;99.50;;;;;;5090673;28;20224;-62
2023/12/26 04:03:24;;;;;;;121.27;28.03;;;4.20;99.50;;;;;;5086707;28;20200;-63
2023/12/26 04:05:51;;;;;;;72.47;26.87;;;4.20;99.50;;;;;;5085704;28;20205;-62
2023/12/26 04:08:19;;;;;;;36.17;24.73;;;4.20;99.40;;;;;;5087529;28;20208;-61
2023/12/26 04:10:46;;;;;;;45.43;25.13;;;4.20;99.40;;;;;;5086867;28;20691;-62
2023/12/26 04:13:13;;;;;;;33.63;24.83;;;4.20;99.40;;;;;;5094896;28;20626;-61
2023/12/26 04:15:41;;;;;;;74.20;26.23;;;4.20;99.40;;;;;;5082079;28;20247;-62
2023/12/26 04:18:09;;;;;;;37.17;25.27;;;4.20;99.40;;;;;;5087537;28;20698;-62
2023/12/26 04:20:36;;;;;;;43.67;25.77;;;4.20;99.30;;;;;;5088799;28;20290;-62
2023/12/26 04:23:03;;;;;;;31.07;24.77;;;4.20;99.40;;;;;;5087274;28;20581;-62
2023/12/26 04:25:31;;;;;;;33.63;25.90;;;4.10;99.40;;;;;;5084705;28;20244;-62
2023/12/26 04:27:58;;;;;;;33.17;24.47;;;4.20;99.40;;;;;;5085848;28;20260;-62
2023/12/26 04:30:26;;;;;;;30.73;24.43;;;4.20;99.40;;;;;;5082253;28;20653;-63
2023/12/26 04:32:53;;;;;;;28.60;25.07;;;4.20;99.20;;;;;;5085796;28;20222;-61
2023/12/26 04:35:21;;;;;;;26.23;23.40;;;4.10;99.20;;;;;;5084129;28;20214;-62
2023/12/26 04:37:48;;;;;;;28.10;23.93;;;4.10;99.10;;;;;;5088168;28;20219;-63
2023/12/26 04:40:15;;;;;;;26.80;22.83;;;4.00;99.00;;;;;;5089491;28;20212;-62
2023/12/26 04:42:43;;;;;;;27.87;23.80;;;4.00;99.00;;;;;;5085070;28;20197;-61
2023/12/26 04:45:12;;;;;;;28.63;24.03;;;4.00;99.10;;;;;;5082960;28;20219;-62
2023/12/26 04:47:39;;;;;;;29.37;25.03;;;4.00;99.10;;;;;;5083633;28;20197;-62
2023/12/26 04:50:07;;;;;;;32.33;25.27;;;4.00;99.10;;;;;;5081118;28;20206;-62
2023/12/26 04:52:34;;;;;;;30.27;25.37;;;3.90;99.10;;;;;;5087125;28;20223;-62
2023/12/26 04:55:02;;;;;;;27.23;23.13;;;3.90;99.10;;;;;;5084409;28;20700;-62
2023/12/26 04:57:29;;;;;;;27.53;23.37;;;4.00;99.20;;;;;;5083483;28;20205;-61
2023/12/26 04:59:57;;;;;;;30.43;25.47;;;4.00;99.20;;;;;;5079627;28;20575;-61
2023/12/26 05:02:25;;;;;;;26.83;23.50;;;4.10;99.30;;;;;;5082756;28;20324;-62
2023/12/26 05:04:52;;;;;;;26.63;23.03;;;4.10;99.30;;;;;;5086773;28;20205;-62
2023/12/26 05:07:19;;;;;;;28.77;24.30;;;4.10;99.20;;;;;;5083015;28;20351;-62
2023/12/26 05:09:46;;;;;;;28.00;23.63;;;4.10;99.10;;;;;;5080911;28;20204;-62
2023/12/26 05:12:13;;;;;;;25.90;23.13;;;4.10;99.10;;;;;;5085245;28;20216;-62
2023/12/26 05:14:40;;;;;;;29.90;24.47;;;4.10;99.10;;;;;;5090226;28;20552;-62
2023/12/26 05:17:08;;;;;;;28.63;24.10;;;4.10;99.10;;;;;;5086484;28;20318;-62
2023/12/26 05:19:35;;;;;;;27.17;24.03;;;4.10;99.10;;;;;;5078511;28;20235;-62
2023/12/26 05:22:02;;;;;;;30.33;24.03;;;4.10;99.10;;;;;;5085072;28;20213;-62
2023/12/26 05:24:34;;;;;;;27.20;24.17;;;4.20;99.20;;;;;;5085759;28;20530;-62
2023/12/26 05:27:17;;;;;;;27.50;22.90;;;4.20;99.20;;;;;;5080542;28;20216;-62
2023/12/26 05:29:45;;;;;;;28.73;23.60;;;4.20;99.20;;;;;;5080310;28;20295;-62
2023/12/26 05:32:12;;;;;;;33.80;24.73;;;4.20;99.10;;;;;;5088508;28;20555;-62
2023/12/26 05:34:39;;;;;;;30.57;24.07;;;4.20;99.10;;;;;;5084095;28;20304;-62
2023/12/26 05:37:06;;;;;;;29.83;24.67;;;4.20;99.10;;;;;;5083320;28;20215;-61
2023/12/26 05:39:34;;;;;;;30.67;24.17;;;4.20;99.10;;;;;;5086134;28;20233;-62
2023/12/26 05:42:03;;;;;;;37.30;23.90;;;4.20;99.10;;;;;;5087433;28;20290;-62
2023/12/26 05:44:30;;;;;;;33.20;24.10;;;4.20;99.00;;;;;;5083772;28;20208;-62
2023/12/26 05:46:57;;;;;;;39.73;24.97;;;4.20;99.00;;;;;;5083985;28;20197;-61
2023/12/26 05:49:24;;;;;;;49.53;24.10;;;4.20;99.00;;;;;;5079914;28;20201;-61
2023/12/26 05:51:52;;;;;;;29.90;22.33;;;4.20;98.90;;;;;;5088835;28;20206;-61
2023/12/26 05:54:19;;;;;;;33.07;24.77;;;4.20;98.90;;;;;;5084354;28;20230;-61
2023/12/26 05:56:46;;;;;;;31.40;23.87;;;4.20;99.00;;;;;;5085777;28;20197;-62
2023/12/26 05:59:13;;;;;;;29.30;24.40;;;4.20;99.10;;;;;;5087116;28;20270;-62
2023/12/26 06:01:46;;;;;;;34.53;24.23;;;4.20;99.10;;;;;;5077152;28;20336;-62
2023/12/26 06:04:13;;;;;;;28.67;23.70;;;4.20;99.10;;;;;;5083102;28;20198;-63
2023/12/26 06:06:40;;;;;;;26.20;23.27;;;4.20;99.00;;;;;;5083152;28;20216;-61
2023/12/26 06:09:08;;;;;;;25.30;21.90;;;4.20;99.00;;;;;;5085294;28;20287;-61
2023/12/26 06:11:35;;;;;;;25.90;22.63;;;4.20;98.90;;;;;;5081802;28;20205;-62
2023/12/26 06:14:05;;;;;;;28.03;22.80;;;4.20;98.90;;;;;;5083489;28;20284;-62
2023/12/26 06:16:33;;;;;;;27.83;23.27;;;4.20;98.80;;;;;;5083284;28;20203;-61
2023/12/26 06:19:00;;;;;;;26.47;22.83;;;4.20;98.70;;;;;;5088465;28;20213;-62
2023/12/26 06:21:27;;;;;;;25.67;22.97;;;4.10;98.60;;;;;;5085038;28;20226;-62
2023/12/26 06:23:55;;;;;;;25.90;22.40;;;4.10;98.50;;;;;;5082185;28;20247;-62
2023/12/26 06:26:22;;;;;;;27.13;23.07;;;4.10;98.60;;;;;;5080353;28;20208;-62
2023/12/26 06:28:49;;;;;;;25.13;21.70;;;4.00;98.60;;;;;;5080921;28;20220;-62
2023/12/26 06:31:18;;;;;;;24.97;22.37;;;4.00;98.60;;;;;;5084689;28;20698;-62
2023/12/26 06:33:46;;;;;;;28.57;22.63;;;4.00;98.60;;;;;;5080682;28;20279;-61
2023/12/26 06:36:13;;;;;;;24.83;21.70;;;4.00;98.60;;;;;;5082195;28;20342;-61
2023/12/26 06:38:42;;;;;;;24.87;21.33;;;3.90;98.60;;;;;;5080638;28;20239;-62
2023/12/26 06:41:10;;;;;;;29.73;22.67;;;3.90;98.60;;;;;;5079247;28;20734;-62
2023/12/26 06:43:38;;;;;;;25.43;20.53;;;3.80;98.50;;;;;;5078244;28;20635;-62
2023/12/26 06:46:05;;;;;;;28.97;23.27;;;3.80;98.50;;;;;;5083468;28;20188;-61
2023/12/26 06:48:35;;;;;;;31.60;23.97;;;3.80;98.60;;;;;;5083629;28;20208;-61
2023/12/26 06:51:06;;;;;;;36.20;24.40;;;3.80;98.60;;;;;;5081369;28;20694;-61
2023/12/26 06:53:33;;;;;;;29.20;23.67;;;3.70;98.50;;;;;;5081780;28;20208;-61
2023/12/26 06:56:04;;;;;;;28.70;24.40;;;3.70;98.50;;;;;;5087233;28;20236;-61
2023/12/26 06:58:31;;;;;;;32.90;25.30;;;3.70;98.50;;;;;;5078957;28;20266;-62
2023/12/26 07:00:58;;;;;;;37.77;27.87;;;3.60;98.50;;;;;;5082355;28;20278;-63
2023/12/26 07:03:25;;;;;;;40.23;28.20;;;3.60;98.60;;;;;;5086397;28;20208;-61
2023/12/26 07:05:53;;;;;;;37.80;27.37;;;3.60;98.60;;;;;;5083902;28;20626;-61
2023/12/26 07:08:20;;;;;;;35.13;26.47;;;3.70;98.60;;;;;;5078621;28;20235;-62
2023/12/26 07:10:47;;;;;;;33.73;26.63;;;3.70;98.70;;;;;;5075231;28;20200;-62
2023/12/26 07:13:14;;;;;;;31.87;25.53;;;3.60;98.70;;;;;;5085268;28;20290;-61
2023/12/26 07:15:42;;;;;;;27.17;23.37;;;3.70;98.70;;;;;;5076312;28;20283;-61
2023/12/26 07:18:10;;;;;;;25.97;22.43;;;3.70;98.70;;;;;;5076741;28;20290;-61
2023/12/26 07:20:37;;;;;;;24.70;21.20;;;3.80;98.80;;;;;;5081027;28;20205;-62
2023/12/26 07:23:04;;;;;;;28.60;23.00;;;3.80;98.80;;;;;;5085393;28;20543;-62
2023/12/26 07:25:31;;;;;;;28.63;21.93;;;3.80;98.70;;;;;;5080439;28;20195;-61
2023/12/26 07:27:58;;;;;;;28.13;22.63;;;3.80;98.60;;;;;;5085367;28;20201;-61
2023/12/26 07:30:25;;;;;;;26.03;21.43;;;3.80;98.60;;;;;;5085960;28;20526;-62
2023/12/26 07:32:53;;;;;;;24.27;21.07;;;3.90;98.70;;;;;;5085112;28;20274;-62
2023/12/26 07:35:20;;;;;;;32.53;22.87;;;3.90;98.80;;;;;;5080921;28;20535;-61
2023/12/26 07:37:47;;;;;;;24.77;21.77;;;4.00;98.90;;;;;;5085346;28;20205;-61
2023/12/26 07:40:14;;;;;;;24.50;20.47;;;4.00;98.90;;;;;;5079721;28;20205;-61
2023/12/26 07:42:42;;;;;;;22.37;19.50;;;4.00;98.90;;;;;;5083734;28;20213;-61
2023/12/26 07:45:09;;;;;;;26.57;21.10;;;4.10;99.00;;;;;;5082765;28;20207;-61
2023/12/26 07:47:36;;;;;;;29.77;22.80;;;4.20;99.00;;;;;;5079340;28;20189;-62
2023/12/26 07:50:04;;;;;;;26.63;22.13;;;4.30;99.10;;;;;;5081674;28;20198;-61
2023/12/26 07:52:35;;;;;;;785.73;337.70;;;4.40;99.10;;;;;;5084643;28;20237;-61
2023/12/26 07:55:02;;;;;;;470.17;198.37;;;4.40;99.20;;;;;;5080879;28;20224;-62
2023/12/26 07:57:29;;;;;;;305.00;122.83;;;4.50;99.10;;;;;;5082456;28;20197;-61
2023/12/26 07:59:56;;;;;;;523.17;234.50;;;4.60;99.10;;;;;;5086313;28;20201;-61
2023/12/26 08:02:23;;;;;;;60.67;33.33;;;4.70;99.10;;;;;;5088722;28;20263;-61
2023/12/26 08:04:50;;;;;;;92.53;43.93;;;4.80;99.10;;;;;;5090435;28;20198;-61
2023/12/26 08:07:18;;;;;;;138.40;57.13;;;4.90;99.00;;;;;;5079335;28;20285;-61
2023/12/26 08:09:45;;;;;;;405.93;131.97;;;4.90;99.00;;;;;;5082433;28;20201;-62
2023/12/26 08:12:12;;;;;;;284.37;94.37;;;5.10;99.10;;;;;;5081935;28;20650;-62
2023/12/26 08:14:39;;;;;;;109.60;43.67;;;5.20;99.20;;;;;;5077994;28;20639;-62
2023/12/26 08:17:06;;;;;;;43.30;22.57;;;5.20;99.20;;;;;;5080117;28;20213;-62
2023/12/26 08:19:33;;;;;;;33.13;20.10;;;5.40;99.30;;;;;;5079664;28;20221;-60
2023/12/26 08:22:01;;;;;;;26.63;18.77;;;5.50;99.30;;;;;;5086689;28;20213;-62
2023/12/26 08:24:28;;;;;;;27.17;18.50;;;5.60;99.40;;;;;;5086481;28;20207;-62
2023/12/26 08:26:57;;;;;;;26.03;18.90;;;5.70;99.40;;;;;;5089335;28;20213;-61
2023/12/26 08:29:25;;;;;;;23.73;18.17;;;5.80;99.40;;;;;;5082191;28;20204;-61
2023/12/26 08:31:53;;;;;;;22.87;17.80;;;5.90;99.50;;;;;;5080367;28;20202;-61
2023/12/26 08:34:20;;;;;;;27.27;17.57;;;6.10;99.50;;;;;;5083790;28;20194;-62
2023/12/26 08:36:48;;;;;;;29.27;18.23;;;6.20;99.50;;;;;;5082543;28;20193;-61
2023/12/26 08:39:15;;;;;;;28.03;17.80;;;6.30;99.50;;;;;;5083103;28;20202;-61
2023/12/26 08:41:42;;;;;;;26.63;17.33;;;6.50;99.90;;;;;;5081943;28;20217;-62
2023/12/26 08:44:10;;;;;;;27.47;17.20;;;6.60;99.60;;;;;;5087683;28;20208;-62
2023/12/26 08:46:39;;;;;;;21.37;15.70;;;6.80;99.60;;;;;;5080430;28;20194;-61
2023/12/26 08:49:06;;;;;;;24.83;16.03;;;6.90;99.60;;;;;;5081337;28;20280;-62
2023/12/26 08:51:38;;;;;;;22.53;16.13;;;7.10;99.60;;;;;;5085876;28;20260;-61
2023/12/26 08:54:05;;;;;;;28.67;15.90;;;7.20;99.60;;;;;;5080457;28;20210;-61
2023/12/26 08:56:33;;;;;;;22.23;15.33;;;7.40;99.70;;;;;;5080415;28;20201;-61
2023/12/26 08:59:00;;;;;;;23.73;16.13;;;7.60;99.70;;;;;;5078269;28;20206;-62
2023/12/26 09:01:27;;;;;;;27.57;15.67;;;7.80;99.70;;;;;;5082314;28;20333;-62
2023/12/26 09:03:55;;;;;;;27.97;14.03;;;8.00;99.70;;;;;;5080497;28;20276;-62
2023/12/26 09:06:23;;;;;;;19.80;14.23;;;8.20;99.50;;;;;;5093157;28;20193;-62
2023/12/26 09:08:50;;;;;;;20.00;13.97;;;8.30;99.50;;;;;;5081457;28;20195;-62
2023/12/26 09:11:17;;;;;;;22.00;14.10;;;8.40;99.40;;;;;;5083466;28;20198;-62
2023/12/26 09:13:44;;;;;;;21.23;14.23;;;8.50;99.30;;;;;;5078131;28;20651;-62
2023/12/26 09:16:11;;;;;;;22.83;14.90;;;8.50;99.20;;;;;;5083070;28;20198;-62
2023/12/26 09:18:39;;;;;;;23.67;13.73;;;8.60;99.10;;;;;;5081383;28;20269;-62
2023/12/26 09:21:07;;;;;;;24.80;14.13;;;8.70;99.00;;;;;;5085068;28;20232;-62
2023/12/26 09:23:34;;;;;;;19.40;13.60;;;8.70;99.00;;;;;;5087035;28;20658;-62
2023/12/26 09:26:04;;;;;;;21.13;13.97;;;8.80;99.00;;;;;;5085894;28;20670;-61
2023/12/26 09:28:31;;;;;;;18.90;12.93;;;8.90;99.00;;;;;;5083691;28;20207;-62
2023/12/26 09:30:59;;;;;;;20.53;12.90;;;9.00;98.90;;;;;;5077626;28;20221;-61
2023/12/26 09:33:26;;;;;;;24.10;13.00;;;9.10;98.90;;;;;;5079668;28;20279;-61
2023/12/26 09:35:54;;;;;;;20.07;10.43;;;9.20;98.90;;;;;;5078654;28;20585;-61
2023/12/26 09:38:21;;;;;;;14.67;9.73;;;9.40;99.00;;;;;;5080459;28;20194;-61
2023/12/26 09:40:48;;;;;;;16.63;9.17;;;9.50;98.90;;;;;;5082589;28;20198;-61
2023/12/26 09:43:15;;;;;;;14.57;9.07;;;9.60;98.70;;;;;;5077816;28;20226;-62
2023/12/26 09:45:42;;;;;;;18.73;10.17;;;9.70;98.50;;;;;;5087314;28;20224;-62
2023/12/26 09:48:11;;;;;;;12.57;8.47;;;9.80;98.30;;;;;;5079134;28;20188;-61
2023/12/26 09:50:39;;;;;;;13.03;10.20;;;9.80;98.20;;;;;;5085852;28;20203;-61
2023/12/26 09:53:09;;;;;;;15.77;9.23;;;9.90;98.10;;;;;;5080548;28;20210;-61
2023/12/26 09:55:36;;;;;;;13.57;9.10;;;9.90;98.00;;;;;;5083820;28;20199;-62
2023/12/26 09:58:04;;;;;;;14.30;8.37;;;10.00;97.90;;;;;;5078190;28;20297;-61
2023/12/26 10:00:32;;;;;;;14.60;8.70;;;10.10;97.80;;;;;;5078911;28;20213;-61
2023/12/26 10:03:00;;;;;;;15.23;8.80;;;10.10;97.60;;;;;;5083113;28;20301;-61
2023/12/26 10:05:28;;;;;;;17.80;9.03;;;10.10;97.40;;;;;;5085830;28;20681;-61
2023/12/26 10:07:55;;;;;;;18.03;9.57;;;10.10;97.20;;;;;;5079075;28;20204;-61
2023/12/26 10:10:23;;;;;;;12.53;8.73;;;10.10;97.10;;;;;;5079952;28;20204;-61
2023/12/26 10:12:50;;;;;;;15.13;8.80;;;10.10;97.00;;;;;;5088533;28;20575;-61
2023/12/26 10:15:18;;;;;;;16.30;8.70;;;10.10;97.00;;;;;;5082256;28;20245;-62
2023/12/26 10:17:45;;;;;;;12.70;9.07;;;10.00;97.10;;;;;;5081889;28;20211;-61
2023/12/26 10:20:16;;;;;;;15.13;9.40;;;10.10;97.10;;;;;;5088551;28;20207;-62
2023/12/26 10:22:44;;;;;;;13.63;9.70;;;10.20;97.10;;;;;;5084016;28;20221;-62
2023/12/26 10:25:12;;;;;;;17.47;9.27;;;10.30;97.00;;;;;;5082623;28;20200;-62
2023/12/26 10:27:40;;;;;;;17.13;9.07;;;10.30;96.80;;;;;;5079963;28;20206;-61
2023/12/26 10:30:08;;;;;;;13.10;8.47;;;10.40;96.80;;;;;;5084671;28;20287;-61
2023/12/26 10:32:35;;;;;;;19.70;9.60;;;10.50;96.70;;;;;;5083801;28;20234;-62
2023/12/26 10:35:15;;;;;;;18.83;9.60;;;10.60;96.70;;;;;;5078705;28;20202;-62
2023/12/26 10:37:42;;;;;;;15.60;8.80;;;10.80;96.60;;;;;;5078351;28;20226;-62
2023/12/26 10:40:10;;;;;;;16.53;9.00;;;10.80;96.50;;;;;;5081674;28;20203;-62
2023/12/26 10:42:41;;;;;;;15.13;8.03;;;10.90;96.40;;;;;;5077679;28;20221;-62
2023/12/26 10:45:09;;;;;;;21.20;8.70;;;11.00;96.30;;;;;;5080039;28;20591;-61
2023/12/26 10:47:39;;;;;;;15.13;8.63;;;11.10;96.20;;;;;;5081390;28;20218;-63
2023/12/26 10:50:08;;;;;;;14.80;9.07;;;11.20;96.20;;;;;;5078824;28;20193;-62
2023/12/26 10:52:41;;;;;;;17.67;9.63;;;11.30;96.10;;;;;;5081250;28;20541;-62
2023/12/26 10:55:09;;;;;;;23.13;8.87;;;11.40;96.10;;;;;;5080946;28;20221;-62
2023/12/26 10:57:36;;;;;;;15.43;9.23;;;11.50;96.00;;;;;;5085093;28;20234;-62
2023/12/26 11:00:03;;;;;;;14.23;8.90;;;11.60;95.90;;;;;;5080457;28;20224;-61
2023/12/26 11:02:32;;;;;;;16.17;8.50;;;11.70;95.80;;;;;;5080209;28;20318;-61
2023/12/26 11:04:59;;;;;;;16.40;8.60;;;11.80;95.70;;;;;;5089804;28;20197;-61
2023/12/26 11:07:26;;;;;;;12.03;8.57;;;11.90;95.70;;;;;;5080491;28;20197;-61
2023/12/26 11:09:53;;;;;;;15.57;8.37;;;12.00;95.60;;;;;;5087272;28;20208;-62
2023/12/26 11:12:21;;;;;;;16.17;9.57;;;12.10;95.40;;;;;;5086355;28;20534;-62
2023/12/26 11:14:49;;;;;;;15.80;9.17;;;12.30;95.30;;;;;;5086698;28;20629;-61
2023/12/26 11:17:16;;;;;;;14.43;8.30;;;12.40;95.20;;;;;;5087104;28;20534;-61
2023/12/26 11:19:44;;;;;;;16.27;8.83;;;12.40;95.10;;;;;;5094126;28;20299;-62
2023/12/26 11:22:11;;;;;;;23.90;7.93;;;12.60;95.10;;;;;;5085506;28;20232;-62
2023/12/26 11:24:38;;;;;;;15.57;8.27;;;12.70;95.00;;;;;;5087117;28;20198;-61
2023/12/26 11:27:07;;;;;;;16.70;8.43;;;12.80;95.00;;;;;;5083343;28;20262;-61
2023/12/26 11:29:34;;;;;;;13.30;8.30;;;12.90;94.80;;;;;;5085072;28;20263;-61
2023/12/26 11:32:01;;;;;;;15.13;8.07;;;13.00;94.70;;;;;;5086671;28;20256;-62
2023/12/26 11:34:28;;;;;;;11.37;7.90;;;13.10;94.60;;;;;;5087638;28;20211;-61
2023/12/26 11:36:56;;;;;;;13.27;7.40;;;13.30;94.70;;;;;;5086298;28;20198;-62
2023/12/26 11:39:25;;;;;;;12.67;8.20;;;13.50;94.10;;;;;;5085239;28;20205;-61
2023/12/26 11:41:53;;;;;;;14.00;7.70;;;13.60;93.80;;;;;;5085242;28;20658;-62
2023/12/26 11:44:20;;;;;;;14.10;7.57;;;13.80;93.60;;;;;;5084660;28;20218;-61
2023/12/26 11:46:48;;;;;;;10.20;6.93;;;13.90;93.40;;;;;;5086428;28;20228;-61
2023/12/26 11:49:16;;;;;;;13.80;6.33;;;13.90;93.20;;;;;;5081225;28;20609;-62
2023/12/26 11:51:43;;;;;;;13.50;6.90;;;14.00;93.00;;;;;;5080181;28;20207;-62
2023/12/26 11:54:10;;;;;;;15.17;6.40;;;14.00;92.90;;;;;;5080981;28;20235;-63
2023/12/26 11:56:38;;;;;;;12.70;6.60;;;14.20;93.00;;;;;;5082069;28;20215;-61
2023/12/26 11:59:05;;;;;;;17.43;6.03;;;14.20;92.90;;;;;;5087113;28;20202;-62
2023/12/26 12:01:32;;;;;;;13.57;6.50;;;14.20;92.80;;;;;;5084376;28;20237;-61
2023/12/26 12:03:59;;;;;;;13.73;6.87;;;14.30;92.70;;;;;;5080097;28;20289;-61
2023/12/26 12:06:26;;;;;;;14.47;6.50;;;14.30;92.60;;;;;;5083372;28;20769;-62
2023/12/26 12:09:05;;;;;;;14.13;6.57;;;14.40;92.70;;;;;;5082492;28;20212;-62
2023/12/26 12:11:32;;;;;;;19.47;6.67;;;14.50;92.40;;;;;;5082050;28;20213;-62
2023/12/26 12:13:59;;;;;;;19.90;7.07;;;14.50;91.90;;;;;;5080820;28;20270;-61
2023/12/26 12:16:28;;;;;;;14.00;6.40;;;14.50;91.70;;;;;;5083416;28;20209;-62
2023/12/26 12:19:02;;;;;;;13.53;6.53;;;14.60;91.70;;;;;;5087140;28;20242;-62
2023/12/26 12:21:37;;;;;;;8.97;6.13;;;14.60;91.80;;;;;;5085691;28;20306;-62
2023/12/26 12:24:05;;;;;;;11.20;6.07;;;14.70;91.80;;;;;;5084345;28;20605;-62
2023/12/26 12:27:06;;;;;;;10.77;6.27;;;14.90;91.70;;;;;;5078450;28;20280;-62
2023/12/26 12:29:58;;;;;;;16.97;6.57;;;15.00;91.40;;;;;;5080629;28;20202;-62
2023/12/26 12:32:33;;;;;;;11.27;7.13;;;15.00;91.30;;;;;;5085735;28;20208;-62
2023/12/26 12:35:14;;;;;;;13.87;6.10;;;15.10;91.50;;;;;;5083562;28;20212;-62
2023/12/26 12:37:41;;;;;;;13.70;6.37;;;15.20;91.10;;;;;;5084615;28;20564;-63
2023/12/26 12:40:11;;;;;;;10.27;5.77;;;15.30;91.30;;;;;;5084586;28;20301;-62